createdAt,value
2023-12-13T00:04:52.115Z,99691.19
2023-12-13T00:11:54.111Z,99676.63
2023-12-13T00:18:56.170Z,99677.56
2023-12-13T00:25:58.443Z,99685.16
2023-12-13T00:33:00.355Z,99679.19
2023-12-13T00:40:04.369Z,99671.53
2023-12-13T00:47:06.424Z,99652.03
2023-12-13T00:54:08.291Z,99652.59
2023-12-13T01:01:10.078Z,99638.44
2023-12-13T01:08:12.201Z,99647.16
2023-12-13T01:15:14.505Z,99650.69
2023-12-13T01:22:16.529Z,99651.06
2023-12-13T01:29:20.313Z,99634.13
2023-12-13T01:36:25.220Z,99632.41
2023-12-13T01:43:32.649Z,99615.78
2023-12-13T01:50:34.704Z,99607.47
2023-12-13T01:57:36.613Z,99597.22
2023-12-13T02:04:44.908Z,99604.59
2023-12-13T02:11:47.163Z,99602.97
2023-12-13T02:18:49.304Z,99593.19
2023-12-13T02:26:11.905Z,99569.38
2023-12-13T02:33:13.830Z,99568.81
2023-12-13T02:40:19.295Z,99559.28
2023-12-13T02:47:22.310Z,99554.19
2023-12-13T02:54:24.673Z,99548.81
2023-12-13T03:01:26.844Z,99538.59
2023-12-13T03:08:32.267Z,99521.41
2023-12-13T03:15:34.005Z,99527.06
2023-12-13T03:22:35.788Z,99522.19
2023-12-13T03:29:37.702Z,99527.31
2023-12-13T03:36:39.524Z,99534.47
2023-12-13T03:43:44.987Z,99514.03
2023-12-13T03:50:46.850Z,99495.28
2023-12-13T03:57:49.039Z,99485.03
2023-12-13T04:04:51.613Z,99466.75
2023-12-13T04:11:53.458Z,99461.81
2023-12-13T04:18:55.233Z,99473.19
2023-12-13T04:25:57.301Z,99478.88
2023-12-13T04:32:59.249Z,99477.88
2023-12-13T04:40:01.558Z,99469.00
2023-12-13T04:47:04.528Z,99476.38
2023-12-13T04:54:07.221Z,99468.00
2023-12-13T05:01:12.524Z,99464.84
2023-12-13T05:08:14.591Z,99451.94
2023-12-13T05:15:16.427Z,99449.22
2023-12-13T05:22:18.282Z,99441.03
2023-12-13T05:29:20.066Z,99437.84
2023-12-13T05:36:21.754Z,99433.22
2023-12-13T05:43:23.668Z,99434.06
2023-12-13T05:50:25.462Z,99430.25
2023-12-13T05:57:27.258Z,99425.19
2023-12-13T06:04:29.328Z,99431.81
2023-12-13T06:11:31.339Z,99435.47
2023-12-13T06:18:33.286Z,99427.41
2023-12-13T06:25:35.124Z,99424.63
2023-12-13T06:32:36.939Z,99432.41
2023-12-13T06:39:38.778Z,99431.16
2023-12-13T06:46:40.544Z,99436.59
2023-12-13T06:53:42.303Z,99428.06
2023-12-13T07:00:44.113Z,99424.03
2023-12-13T07:07:48.308Z,99426.94
2023-12-13T07:14:50.146Z,99433.97
2023-12-13T07:21:51.953Z,99430.91
2023-12-13T07:28:53.960Z,99431.22
2023-12-13T07:35:55.836Z,99429.22
2023-12-13T07:42:57.601Z,99426.47
2023-12-13T07:49:59.610Z,99440.97
2023-12-13T07:57:01.497Z,99446.66
2023-12-13T08:04:03.831Z,99454.59
2023-12-13T08:11:06.293Z,99450.31
2023-12-13T08:18:08.180Z,99452.38
2023-12-13T08:25:10.398Z,99454.13
2023-12-13T08:32:12.213Z,99449.81
2023-12-13T08:39:14.193Z,99460.06
2023-12-13T08:46:16.193Z,99453.91
2023-12-13T08:53:17.975Z,99463.25
2023-12-13T09:00:20.732Z,99453.09
2023-12-13T09:07:22.435Z,99459.66
2023-12-13T09:14:24.242Z,99463.06
2023-12-13T09:21:26.643Z,99467.38
2023-12-13T09:28:30.305Z,99474.25
2023-12-13T09:35:32.387Z,99475.47
2023-12-13T09:42:34.576Z,99476.78
2023-12-13T09:49:39.739Z,99467.78
2023-12-13T09:56:41.655Z,99470.63
2023-12-13T10:03:43.600Z,99461.91
2023-12-13T10:10:48.708Z,99470.69
2023-12-13T10:17:51.176Z,99462.78
2023-12-13T10:24:53.586Z,99467.47
2023-12-13T10:31:55.495Z,99453.69
2023-12-13T10:39:00.645Z,99457.22
2023-12-13T10:46:02.892Z,99450.06
2023-12-13T10:53:04.596Z,99444.91
2023-12-13T11:00:07.230Z,99449.81
2023-12-13T11:07:10.496Z,99454.50
2023-12-13T11:14:16.598Z,99457.03
2023-12-13T11:21:29.370Z,99462.19
2023-12-13T11:28:32.711Z,99461.19
2023-12-13T11:35:35.537Z,99467.31
2023-12-13T11:42:39.578Z,99468.53
2023-12-13T11:49:41.887Z,99460.13
2023-12-13T11:56:44.458Z,99476.66
2023-12-13T12:03:46.478Z,99485.25
2023-12-13T12:10:48.767Z,99479.09
2023-12-13T12:17:51.280Z,99481.59
2023-12-13T12:24:53.313Z,99472.78
2023-12-13T12:31:55.617Z,99489.22
2023-12-13T12:38:57.667Z,99482.25
2023-12-13T12:45:59.643Z,99483.88
2023-12-13T12:53:01.683Z,99487.31
2023-12-13T13:00:05.158Z,99483.88
2023-12-13T13:07:07.121Z,99495.34
2023-12-13T13:14:09.501Z,99496.53
2023-12-13T13:21:11.258Z,99503.50
2023-12-13T13:28:12.933Z,99498.06
2023-12-13T13:35:15.176Z,99509.38
2023-12-13T13:42:16.765Z,99498.97
2023-12-13T13:49:19.911Z,99513.00
2023-12-13T13:56:27.202Z,99518.41
2023-12-13T14:03:35.408Z,99525.75
2023-12-13T14:10:37.388Z,99528.59
2023-12-13T14:17:39.703Z,99536.09
2023-12-13T14:24:42.770Z,99546.53
2023-12-13T14:31:45.467Z,99542.25
2023-12-13T14:38:48.232Z,99547.59
2023-12-13T14:45:49.979Z,99546.94
2023-12-13T14:52:52.156Z,99557.91
2023-12-13T14:59:54.275Z,99562.06
2023-12-13T15:06:56.231Z,99564.25
2023-12-13T15:13:58.958Z,99574.09
2023-12-13T15:21:01.070Z,99577.56
2023-12-13T15:28:06.618Z,99583.75
2023-12-13T15:35:10.466Z,99586.81
2023-12-13T15:42:12.425Z,99588.91
2023-12-13T15:49:14.208Z,99591.53
2023-12-13T15:56:16.021Z,99599.75
2023-12-13T16:03:17.936Z,99602.00
2023-12-13T16:10:22.546Z,99617.69
2023-12-13T16:17:24.596Z,99621.03
2023-12-13T16:24:26.692Z,99632.25
2023-12-13T16:31:28.802Z,99632.47
2023-12-13T16:38:31.080Z,99643.91
2023-12-13T16:45:32.882Z,99652.22
2023-12-13T16:52:35.130Z,99657.88
2023-12-13T16:59:37.017Z,99665.81
2023-12-13T17:06:38.762Z,99668.00
2023-12-13T17:13:42.367Z,99685.75
2023-12-13T17:20:44.404Z,99679.16
2023-12-13T17:27:46.936Z,99680.69
2023-12-13T17:34:48.685Z,99688.97
2023-12-13T17:41:51.131Z,99686.44
2023-12-13T17:48:53.091Z,99698.16
2023-12-13T17:55:55.767Z,99698.72
2023-12-13T18:02:57.741Z,99713.66
2023-12-13T18:09:59.545Z,99723.69
2023-12-13T18:17:04.930Z,99740.47
2023-12-13T18:24:06.981Z,99744.47
2023-12-13T18:31:09.493Z,99754.06
2023-12-13T18:38:11.557Z,99762.69
2023-12-13T18:45:16.842Z,99768.81
2023-12-13T18:52:19.352Z,99777.03
2023-12-13T18:59:21.150Z,99776.09
2023-12-13T19:06:23.085Z,99785.75
2023-12-13T19:13:25.191Z,99799.16
2023-12-13T19:20:26.966Z,99802.72
2023-12-13T19:27:28.985Z,99810.75
2023-12-13T19:34:37.185Z,99815.16
2023-12-13T19:41:40.053Z,99821.84
2023-12-13T19:48:42.913Z,99830.63
2023-12-13T19:55:45.360Z,99846.22
2023-12-13T20:02:47.203Z,99846.00
2023-12-13T20:09:48.904Z,99852.81
2023-12-13T20:16:50.782Z,99853.78
2023-12-13T20:23:52.618Z,99861.72
2023-12-13T20:30:54.614Z,99860.78
2023-12-13T20:38:01.088Z,99871.03
2023-12-13T20:45:05.946Z,99879.84
2023-12-13T20:52:08.447Z,99885.06
2023-12-13T20:59:11.050Z,99905.97
2023-12-13T21:06:14.255Z,99916.91
2023-12-13T21:13:16.054Z,99918.47
2023-12-13T21:20:17.757Z,99935.06
2023-12-13T21:27:19.504Z,99941.13
2023-12-13T21:34:21.266Z,99952.53
2023-12-13T21:41:25.038Z,99963.94
2023-12-13T21:48:28.971Z,99975.75
2023-12-13T21:55:32.129Z,99982.25
2023-12-13T22:02:34.340Z,99995.09
2023-12-13T22:09:36.220Z,100006.97
2023-12-13T22:16:38.107Z,100015.44
2023-12-13T22:23:47.744Z,100034.59
2023-12-13T22:30:54.780Z,100028.88
2023-12-13T22:37:59.055Z,100048.47
2023-12-13T22:45:00.841Z,100037.78
2023-12-13T22:52:19.706Z,100041.22
2023-12-13T22:59:24.399Z,100056.53
2023-12-13T23:06:27.119Z,100050.13
2023-12-13T23:13:29.629Z,100041.69
2023-12-13T23:20:31.557Z,100057.53
2023-12-13T23:27:33.265Z,100077.78
2023-12-13T23:34:35.314Z,100085.81
2023-12-13T23:41:37.187Z,100085.75
2023-12-13T23:48:39.122Z,100096.53
2023-12-13T23:55:41.015Z,100110.28
